createdAt,value
2018-09-02T00:02:07.023Z,6.50
2018-09-02T00:04:35.301Z,4.70
2018-09-02T00:07:03.527Z,8.53
2018-09-02T00:09:31.799Z,8.47
2018-09-02T00:12:00.092Z,4.77
2018-09-02T00:14:28.293Z,5.63
2018-09-02T00:16:56.595Z,5.80
2018-09-02T00:19:24.929Z,5.87
2018-09-02T00:21:53.190Z,8.30
2018-09-02T00:24:21.404Z,8.23
2018-09-02T00:26:49.584Z,6.77
2018-09-02T00:29:17.761Z,6.37
2018-09-02T00:31:46.092Z,6.07
2018-09-02T00:34:14.246Z,5.10
2018-09-02T00:36:42.466Z,8.93
2018-09-02T00:39:11.072Z,6.57
2018-09-02T00:41:39.968Z,7.47
2018-09-02T00:44:08.446Z,5.67
2018-09-02T00:46:37.037Z,6.17
2018-09-02T00:49:05.474Z,6.87
2018-09-02T00:51:33.633Z,6.87
2018-09-02T00:54:01.785Z,6.00
2018-09-02T00:56:30.036Z,4.10
2018-09-02T00:58:58.316Z,5.47
2018-09-02T01:01:26.490Z,4.67
2018-09-02T01:03:54.728Z,4.80
2018-09-02T01:06:22.962Z,8.47
2018-09-02T01:08:51.201Z,6.00
2018-09-02T01:11:19.442Z,7.33
2018-09-02T01:13:47.712Z,5.43
2018-09-02T01:16:15.878Z,6.23
2018-09-02T01:18:44.395Z,5.83
2018-09-02T01:21:13.177Z,6.50
2018-09-02T01:23:41.326Z,4.90
2018-09-02T01:26:09.431Z,6.47
2018-09-02T01:28:38.322Z,5.23
2018-09-02T01:31:06.638Z,4.20
2018-09-02T01:33:35.049Z,4.10
2018-09-02T01:36:03.255Z,6.70
2018-09-02T01:38:31.444Z,5.93
2018-09-02T01:40:59.615Z,6.10
2018-09-02T01:43:27.804Z,6.43
2018-09-02T01:46:02.545Z,6.90
2018-09-02T01:48:30.821Z,5.83
2018-09-02T01:50:58.996Z,4.97
2018-09-02T01:53:27.151Z,6.63
2018-09-02T01:55:55.358Z,5.23
2018-09-02T01:58:23.598Z,6.50
2018-09-02T02:00:51.813Z,5.90
2018-09-02T02:03:20.025Z,5.97
2018-09-02T02:05:49.110Z,6.07
2018-09-02T02:08:17.235Z,4.93
2018-09-02T02:10:45.373Z,5.33
2018-09-02T02:13:13.527Z,6.47
2018-09-02T02:15:41.723Z,7.10
2018-09-02T02:18:11.193Z,5.57
2018-09-02T02:20:39.549Z,3.33
2018-09-02T02:23:07.813Z,5.90
2018-09-02T02:25:36.175Z,6.77
2018-09-02T02:28:05.195Z,5.97
2018-09-02T02:30:33.298Z,6.60
2018-09-02T02:33:01.450Z,4.20
2018-09-02T02:35:29.697Z,6.23
2018-09-02T02:37:57.930Z,5.37
2018-09-02T02:40:26.112Z,7.00
2018-09-02T02:42:54.324Z,6.60
2018-09-02T02:45:22.605Z,6.97
2018-09-02T02:47:50.762Z,6.57
2018-09-02T02:50:18.979Z,5.13
2018-09-02T02:52:52.798Z,4.83
2018-09-02T02:55:21.092Z,8.17
2018-09-02T02:57:49.318Z,5.77
2018-09-02T03:00:17.567Z,5.53
2018-09-02T03:02:45.862Z,7.23
2018-09-02T03:05:14.082Z,7.60
2018-09-02T03:07:42.276Z,7.73
2018-09-02T03:10:10.499Z,7.07
2018-09-02T03:12:38.704Z,8.27
2018-09-02T03:15:06.968Z,5.47
2018-09-02T03:17:35.282Z,7.57
2018-09-02T03:20:03.484Z,5.73
2018-09-02T03:22:31.749Z,5.10
2018-09-02T03:24:59.968Z,6.07
2018-09-02T03:27:28.187Z,7.47
2018-09-02T03:29:56.492Z,5.57
2018-09-02T03:32:24.674Z,6.63
2018-09-02T03:34:52.904Z,5.40
2018-09-02T03:37:21.223Z,6.13
2018-09-02T03:39:49.373Z,6.50
2018-09-02T03:42:18.311Z,6.83
2018-09-02T03:44:46.665Z,6.70
2018-09-02T03:47:14.807Z,3.57
2018-09-02T03:49:42.904Z,4.50
2018-09-02T03:52:11.026Z,5.10
2018-09-02T03:54:39.393Z,6.20
2018-09-02T03:57:07.621Z,6.60
2018-09-02T03:59:36.053Z,4.80
2018-09-02T04:02:04.279Z,7.73
2018-09-02T04:04:32.388Z,6.47
2018-09-02T04:07:00.543Z,6.17
2018-09-02T04:09:28.835Z,6.03
2018-09-02T04:11:57.056Z,5.17
2018-09-02T04:14:25.309Z,5.40
2018-09-02T04:16:53.561Z,7.60
2018-09-02T04:19:21.808Z,6.20
2018-09-02T04:21:50.078Z,3.70
2018-09-02T04:24:18.343Z,4.53
2018-09-02T04:26:46.671Z,6.33
2018-09-02T04:29:15.184Z,6.63
2018-09-02T04:31:43.418Z,4.87
2018-09-02T04:34:11.739Z,4.27
2018-09-02T04:36:40.004Z,6.33
2018-09-02T04:39:09.305Z,6.30
2018-09-02T04:41:37.943Z,4.27
2018-09-02T04:44:06.140Z,5.33
2018-09-02T04:46:34.752Z,5.80
2018-09-02T04:49:03.127Z,4.33
2018-09-02T04:51:31.369Z,6.30
2018-09-02T04:53:59.657Z,5.97
2018-09-02T04:56:27.831Z,4.60
2018-09-02T04:58:56.107Z,5.00
2018-09-02T05:01:24.330Z,5.53
2018-09-02T05:03:53.062Z,3.43
2018-09-02T05:06:21.272Z,5.57
2018-09-02T05:08:49.542Z,4.40
2018-09-02T05:11:17.918Z,5.03
2018-09-02T05:13:46.100Z,4.53
2018-09-02T05:16:14.810Z,3.53
2018-09-02T05:18:43.079Z,5.53
2018-09-02T05:21:11.320Z,3.77
2018-09-02T05:23:39.552Z,6.43
2018-09-02T05:26:07.864Z,5.77
2018-09-02T05:28:36.046Z,5.03
2018-09-02T05:31:04.509Z,4.63
2018-09-02T05:33:32.945Z,6.93
2018-09-02T05:36:01.102Z,4.53
2018-09-02T05:38:30.257Z,5.60
2018-09-02T05:40:58.405Z,4.77
2018-09-02T05:43:26.575Z,6.23
2018-09-02T05:45:54.889Z,4.87
2018-09-02T05:48:23.165Z,5.17
2018-09-02T05:50:51.351Z,6.10
2018-09-02T05:53:19.665Z,4.67
2018-09-02T05:55:47.781Z,5.10
2018-09-02T05:58:16.020Z,5.03
2018-09-02T06:00:44.424Z,4.60
2018-09-02T06:03:12.641Z,5.33
2018-09-02T06:05:41.150Z,5.27
2018-09-02T06:08:09.322Z,6.30
2018-09-02T06:10:37.591Z,4.30
2018-09-02T06:13:05.955Z,6.57
2018-09-02T06:15:34.274Z,7.17
2018-09-02T06:18:02.481Z,7.00
2018-09-02T06:20:30.639Z,6.00
2018-09-02T06:22:58.719Z,5.60
2018-09-02T06:25:27.023Z,4.63
2018-09-02T06:27:55.500Z,5.50
2018-09-02T06:30:23.728Z,5.30
2018-09-02T06:32:51.986Z,4.47
2018-09-02T06:35:20.188Z,4.67
2018-09-02T06:37:48.496Z,6.17
2018-09-02T06:40:16.720Z,4.07
2018-09-02T06:42:44.888Z,4.87
2018-09-02T06:45:13.036Z,5.47
2018-09-02T06:47:41.254Z,6.83
2018-09-02T06:50:09.370Z,6.27
2018-09-02T06:52:37.536Z,7.63
2018-09-02T06:55:05.778Z,4.93
2018-09-02T06:57:33.932Z,6.00
2018-09-02T07:00:02.043Z,6.43
2018-09-02T07:02:30.179Z,4.07
2018-09-02T07:04:58.337Z,5.33
2018-09-02T07:07:26.612Z,4.13
2018-09-02T07:09:54.673Z,5.07
2018-09-02T07:12:22.849Z,5.70
2018-09-02T07:14:51.178Z,5.33
2018-09-02T07:17:19.337Z,5.77
2018-09-02T07:19:47.644Z,5.37
2018-09-02T07:22:15.884Z,5.33
2018-09-02T07:24:44.098Z,7.53
2018-09-02T07:27:12.336Z,5.07
2018-09-02T07:29:40.593Z,7.17
2018-09-02T07:32:08.671Z,7.00
2018-09-02T07:34:37.129Z,4.33
2018-09-02T07:37:05.294Z,5.13
2018-09-02T07:39:33.701Z,6.50
2018-09-02T07:42:01.907Z,4.93
2018-09-02T07:44:30.119Z,5.10
2018-09-02T07:46:58.253Z,5.30
2018-09-02T07:49:26.457Z,5.60
2018-09-02T07:51:54.647Z,4.90
2018-09-02T07:54:22.803Z,4.87
2018-09-02T07:56:50.996Z,5.67
2018-09-02T07:59:19.177Z,5.87
2018-09-02T08:01:48.311Z,5.50
2018-09-02T08:04:16.414Z,6.03
2018-09-02T08:06:44.803Z,5.47
2018-09-02T08:09:12.982Z,5.83
2018-09-02T08:11:41.543Z,5.43
2018-09-02T08:14:09.797Z,5.67
2018-09-02T08:16:38.013Z,5.83
2018-09-02T08:19:06.162Z,5.83
2018-09-02T08:21:34.359Z,5.93
2018-09-02T08:24:02.592Z,6.17
2018-09-02T08:26:30.806Z,6.03
2018-09-02T08:28:59.030Z,5.97
2018-09-02T08:31:27.226Z,5.33
2018-09-02T08:33:55.476Z,6.20
2018-09-02T08:36:23.711Z,5.83
2018-09-02T08:38:51.893Z,5.70
2018-09-02T08:41:20.012Z,5.70
2018-09-02T08:43:48.154Z,5.13
2018-09-02T08:46:16.546Z,6.23
2018-09-02T08:48:44.626Z,5.97
2018-09-02T08:51:12.827Z,4.80
2018-09-02T08:53:41.048Z,7.13
2018-09-02T08:56:09.293Z,5.30
2018-09-02T08:58:37.405Z,5.83
2018-09-02T09:01:05.674Z,5.80
2018-09-02T09:03:33.993Z,7.77
2018-09-02T09:06:02.287Z,7.60
2018-09-02T09:08:30.752Z,6.63
2018-09-02T09:10:59.961Z,6.27
2018-09-02T09:13:28.390Z,6.90
2018-09-02T09:15:56.604Z,6.50
2018-09-02T09:18:24.862Z,7.27
2018-09-02T09:20:53.124Z,7.63
2018-09-02T09:23:21.394Z,5.97
2018-09-02T09:25:50.330Z,6.77
2018-09-02T09:28:18.840Z,6.50
2018-09-02T09:30:47.137Z,7.63
2018-09-02T09:33:15.990Z,6.17
2018-09-02T09:35:44.146Z,6.60
2018-09-02T09:38:12.393Z,6.10
2018-09-02T09:40:40.667Z,6.43
2018-09-02T09:43:08.955Z,7.20
2018-09-02T09:45:37.129Z,8.83
2018-09-02T09:48:05.356Z,8.03
2018-09-02T09:50:33.616Z,7.07
2018-09-02T09:53:01.814Z,8.07
2018-09-02T09:55:30.201Z,9.00
2018-09-02T09:57:58.413Z,8.47
2018-09-02T10:00:31.485Z,7.47
2018-09-02T10:03:00.212Z,8.40
2018-09-02T10:05:28.357Z,9.00
2018-09-02T10:07:56.560Z,7.10
2018-09-02T10:10:24.673Z,6.53
2018-09-02T10:12:52.846Z,7.10
2018-09-02T10:15:20.968Z,6.70
2018-09-02T10:17:49.217Z,7.10
2018-09-02T10:20:17.511Z,6.23
2018-09-02T10:22:45.729Z,6.33
2018-09-02T10:25:13.972Z,6.93
2018-09-02T10:27:42.248Z,7.43
2018-09-02T10:30:10.427Z,7.53
2018-09-02T10:32:38.711Z,6.40
2018-09-02T10:35:06.981Z,7.10
2018-09-02T10:37:35.259Z,7.20
2018-09-02T10:40:03.569Z,9.90
2018-09-02T10:42:31.746Z,7.63
2018-09-02T10:44:59.968Z,7.07
2018-09-02T10:47:28.166Z,6.47
2018-09-02T10:49:56.350Z,7.33
2018-09-02T10:52:24.587Z,7.10
2018-09-02T10:54:52.742Z,6.63
2018-09-02T10:57:20.890Z,8.77
2018-09-02T10:59:49.125Z,8.60
2018-09-02T11:02:17.383Z,7.63
2018-09-02T11:04:45.521Z,7.30
2018-09-02T11:07:13.755Z,7.47
2018-09-02T11:09:41.984Z,7.67
2018-09-02T11:12:10.179Z,7.30
2018-09-02T11:14:38.716Z,7.20
2018-09-02T11:17:07.576Z,7.50
2018-09-02T11:19:35.855Z,7.40
2018-09-02T11:22:04.093Z,8.33
2018-09-02T11:24:32.280Z,8.50
2018-09-02T11:27:01.196Z,7.30
2018-09-02T11:29:29.426Z,7.93
2018-09-02T11:31:57.590Z,8.07
2018-09-02T11:34:25.819Z,7.77
2018-09-02T11:36:54.037Z,8.77
2018-09-02T11:39:22.330Z,7.90
2018-09-02T11:41:50.551Z,9.60
2018-09-02T11:44:18.803Z,7.47
2018-09-02T11:46:47.001Z,7.20
2018-09-02T11:49:15.387Z,6.87
2018-09-02T11:51:43.567Z,7.57
2018-09-02T11:54:11.744Z,9.27
2018-09-02T11:56:39.912Z,7.03
2018-09-02T11:59:08.399Z,9.80
2018-09-02T12:01:37.155Z,8.17
2018-09-02T12:04:05.618Z,8.07
2018-09-02T12:06:33.837Z,8.60
2018-09-02T12:09:02.351Z,6.60
2018-09-02T12:11:30.556Z,8.23
2018-09-02T12:13:58.856Z,8.43
2018-09-02T12:16:26.901Z,7.30
2018-09-02T12:18:55.211Z,8.00
2018-09-02T12:21:23.431Z,7.63
2018-09-02T12:23:51.863Z,7.60
2018-09-02T12:26:20.224Z,7.07
2018-09-02T12:28:48.544Z,9.07
2018-09-02T12:31:16.858Z,9.27
2018-09-02T12:33:45.103Z,7.80
2018-09-02T12:36:13.403Z,11.03
2018-09-02T12:38:41.657Z,7.53
2018-09-02T12:41:09.997Z,10.10
2018-09-02T12:43:38.315Z,9.00
2018-09-02T12:46:06.587Z,9.43
2018-09-02T12:48:34.861Z,7.47
2018-09-02T12:51:03.523Z,9.10
2018-09-02T12:53:31.808Z,10.23
2018-09-02T12:56:00.270Z,8.57
2018-09-02T12:58:28.817Z,8.80
2018-09-02T13:00:57.090Z,9.37
2018-09-02T13:03:25.361Z,9.20
2018-09-02T13:05:53.682Z,6.43
2018-09-02T13:08:22.012Z,8.30
2018-09-02T13:10:50.278Z,9.80
2018-09-02T13:13:18.682Z,12.43
2018-09-02T13:15:47.373Z,11.60
2018-09-02T13:18:15.837Z,9.73
2018-09-02T13:20:44.468Z,10.60
2018-09-02T13:23:12.942Z,8.33
2018-09-02T13:25:42.858Z,8.33
2018-09-02T13:28:11.779Z,11.63
2018-09-02T13:30:40.458Z,9.43
2018-09-02T13:33:09.554Z,9.33
2018-09-02T13:35:38.624Z,11.77
2018-09-02T13:38:06.863Z,13.40
2018-09-02T13:40:35.115Z,10.90
2018-09-02T13:43:03.678Z,14.47
2018-09-02T13:45:31.862Z,10.53
2018-09-02T13:48:00.698Z,11.80
2018-09-02T13:50:28.968Z,10.53
2018-09-02T13:52:57.213Z,10.30
2018-09-02T13:55:25.526Z,12.10
2018-09-02T13:57:53.696Z,10.93
2018-09-02T14:00:21.865Z,12.30
2018-09-02T14:02:50.024Z,12.07
2018-09-02T14:05:18.271Z,9.40
2018-09-02T14:07:47.258Z,11.23
2018-09-02T14:10:15.404Z,10.83
2018-09-02T14:12:43.656Z,10.00
2018-09-02T14:15:12.023Z,11.90
2018-09-02T14:17:40.547Z,10.80
2018-09-02T14:20:08.808Z,10.63
2018-09-02T14:22:37.052Z,14.00
2018-09-02T14:25:05.674Z,11.23
2018-09-02T14:27:34.098Z,10.73
2018-09-02T14:30:02.476Z,9.30
2018-09-02T14:32:30.731Z,8.53
2018-09-02T14:34:58.991Z,9.63
2018-09-02T14:37:27.545Z,15.60
2018-09-02T14:39:56.505Z,11.27
2018-09-02T14:42:24.885Z,11.90
2018-09-02T14:44:53.100Z,10.27
2018-09-02T14:47:21.320Z,15.17
2018-09-02T14:49:49.529Z,14.50
2018-09-02T14:52:18.501Z,9.90
2018-09-02T14:54:46.710Z,12.80
2018-09-02T14:57:14.956Z,11.83
2018-09-02T14:59:43.486Z,13.63
2018-09-02T15:02:11.907Z,12.47
2018-09-02T15:04:40.128Z,12.40
2018-09-02T15:07:08.302Z,12.07
2018-09-02T15:09:36.496Z,11.87
2018-09-02T15:12:04.742Z,14.77
2018-09-02T15:14:33.022Z,15.77
2018-09-02T15:17:01.170Z,12.10
2018-09-02T15:19:29.630Z,12.50
2018-09-02T15:21:57.861Z,12.07
2018-09-02T15:24:26.092Z,11.67
2018-09-02T15:26:54.461Z,13.27
2018-09-02T15:29:22.701Z,12.03
2018-09-02T15:31:50.924Z,12.90
2018-09-02T15:34:19.104Z,12.73
2018-09-02T15:36:47.261Z,11.70
2018-09-02T15:39:15.432Z,14.23
2018-09-02T15:41:43.636Z,14.90
2018-09-02T15:44:11.972Z,12.53
2018-09-02T15:46:40.076Z,15.03
2018-09-02T15:49:08.275Z,14.13
2018-09-02T15:51:36.670Z,14.40
2018-09-02T15:54:04.893Z,14.77
2018-09-02T15:56:33.107Z,15.17
2018-09-02T15:59:01.293Z,16.80
2018-09-02T16:01:29.529Z,12.67
2018-09-02T16:03:57.789Z,13.83
2018-09-02T16:06:26.029Z,18.30
2018-09-02T16:08:54.283Z,18.53
2018-09-02T16:11:23.216Z,18.03
2018-09-02T16:13:52.007Z,14.00
2018-09-02T16:16:20.363Z,12.93
2018-09-02T16:18:48.605Z,16.80
2018-09-02T16:21:16.752Z,18.23
2018-09-02T16:23:45.068Z,18.10
2018-09-02T16:26:13.619Z,17.50
2018-09-02T16:28:41.874Z,19.07
2018-09-02T16:31:10.949Z,20.33
2018-09-02T16:33:39.143Z,12.60
2018-09-02T16:36:07.296Z,17.27
2018-09-02T16:38:35.549Z,19.10
2018-09-02T16:41:03.688Z,17.73
2018-09-02T16:43:31.810Z,15.03
2018-09-02T16:45:59.995Z,17.57
2018-09-02T16:48:28.194Z,15.83
2018-09-02T16:50:56.374Z,17.70
2018-09-02T16:53:24.901Z,15.93
2018-09-02T16:55:53.196Z,24.00
2018-09-02T16:58:21.506Z,18.23
2018-09-02T17:00:50.750Z,22.77
2018-09-02T17:03:19.279Z,20.47
2018-09-02T17:05:47.458Z,18.97
2018-09-02T17:08:15.678Z,24.47
2018-09-02T17:10:44.768Z,19.97
2018-09-02T17:13:14.227Z,21.50
2018-09-02T17:15:43.163Z,22.97
2018-09-02T17:18:12.513Z,20.73
2018-09-02T17:20:43.416Z,22.93
2018-09-02T17:23:13.232Z,25.07
2018-09-02T17:25:42.742Z,22.37
2018-09-02T17:28:11.956Z,21.00
2018-09-02T17:30:40.332Z,19.57
2018-09-02T17:33:09.964Z,22.40
2018-09-02T17:35:38.907Z,25.47
2018-09-02T17:38:07.195Z,20.33
2018-09-02T17:40:35.601Z,23.13
2018-09-02T17:43:04.139Z,18.17
2018-09-02T17:45:32.382Z,25.67
2018-09-02T17:48:00.697Z,17.63
2018-09-02T17:50:29.779Z,18.73
2018-09-02T17:52:57.874Z,25.13
2018-09-02T17:55:26.389Z,20.57
2018-09-02T17:57:54.520Z,19.93
2018-09-02T18:00:26.649Z,20.67
2018-09-02T18:02:54.762Z,22.60
2018-09-02T18:05:22.894Z,20.83
2018-09-02T18:07:51.144Z,23.63
2018-09-02T18:10:19.417Z,19.93
2018-09-02T18:12:47.659Z,24.00
2018-09-02T18:15:15.901Z,21.23
2018-09-02T18:17:44.165Z,18.93
2018-09-02T18:20:12.343Z,22.60
2018-09-02T18:22:40.667Z,19.77
2018-09-02T18:25:08.900Z,20.67
2018-09-02T18:27:39.104Z,23.37
2018-09-02T18:30:08.573Z,21.90
2018-09-02T18:32:37.741Z,22.30
2018-09-02T18:35:06.205Z,25.67
2018-09-02T18:37:34.412Z,27.27
2018-09-02T18:40:02.955Z,21.90
2018-09-02T18:42:31.573Z,25.13
2018-09-02T18:44:59.740Z,24.27
2018-09-02T18:47:28.544Z,22.97
2018-09-02T18:49:56.776Z,22.90
2018-09-02T18:52:25.120Z,21.37
2018-09-02T18:54:53.237Z,20.33
2018-09-02T18:57:21.435Z,19.97
2018-09-02T18:59:49.700Z,22.73
2018-09-02T19:02:18.061Z,19.67
2018-09-02T19:04:46.319Z,22.13
2018-09-02T19:07:14.487Z,25.60
2018-09-02T19:09:42.739Z,22.60
2018-09-02T19:12:10.900Z,20.53
2018-09-02T19:14:39.225Z,24.77
2018-09-02T19:17:07.630Z,24.87
2018-09-02T19:19:35.808Z,27.37
2018-09-02T19:22:04.420Z,26.03
2018-09-02T19:24:33.080Z,26.40
2018-09-02T19:27:01.435Z,25.50
2018-09-02T19:29:29.761Z,28.57
2018-09-02T19:31:57.984Z,23.77
2018-09-02T19:34:26.208Z,22.27
2018-09-02T19:36:54.460Z,21.27
2018-09-02T19:39:22.719Z,21.33
2018-09-02T19:41:50.907Z,19.43
2018-09-02T19:44:21.354Z,21.07
2018-09-02T19:46:49.584Z,18.27
2018-09-02T19:49:17.699Z,20.50
2018-09-02T19:51:45.943Z,19.17
2018-09-02T19:54:14.159Z,19.17
2018-09-02T19:56:42.446Z,19.43
2018-09-02T19:59:10.630Z,18.37
2018-09-02T20:01:38.770Z,15.87
2018-09-02T20:04:07.562Z,14.67
2018-09-02T20:06:35.756Z,16.50
2018-09-02T20:09:07.352Z,15.00
2018-09-02T20:11:35.527Z,16.50
2018-09-02T20:14:03.742Z,16.83
2018-09-02T20:16:31.853Z,15.97
2018-09-02T20:19:00.181Z,17.07
2018-09-02T20:21:28.303Z,17.20
2018-09-02T20:23:56.673Z,14.60
2018-09-02T20:26:24.761Z,13.63
2018-09-02T20:28:52.908Z,15.27
2018-09-02T20:31:21.657Z,16.03
2018-09-02T20:33:49.834Z,13.20
2018-09-02T20:36:18.050Z,13.80
2018-09-02T20:38:46.905Z,15.93
2018-09-02T20:41:15.036Z,13.93
2018-09-02T20:43:43.113Z,12.60
2018-09-02T20:46:11.356Z,14.83
2018-09-02T20:48:39.615Z,12.20
2018-09-02T20:51:07.953Z,14.03
2018-09-02T20:53:36.928Z,13.90
2018-09-02T20:56:05.548Z,13.17
2018-09-02T20:58:33.898Z,14.37
2018-09-02T21:01:02.022Z,14.27
2018-09-02T21:03:30.373Z,13.00
2018-09-02T21:05:58.580Z,10.83
2018-09-02T21:08:26.933Z,12.40
2018-09-02T21:10:55.073Z,12.60
2018-09-02T21:13:23.342Z,11.30
2018-09-02T21:15:51.499Z,11.90
2018-09-02T21:18:19.680Z,12.20
2018-09-02T21:20:47.863Z,12.43
2018-09-02T21:23:16.040Z,11.30
2018-09-02T21:26:01.293Z,12.23
2018-09-02T21:29:21.654Z,10.93
2018-09-02T21:35:04.038Z,8.53
2018-09-02T21:44:01.369Z,21.70
2018-09-02T21:46:34.726Z,13.30
2018-09-02T21:49:06.634Z,12.13
2018-09-02T21:51:46.380Z,9.43
2018-09-02T22:00:16.938Z,8.67
2018-09-02T22:09:00.068Z,9.60
2018-09-02T22:11:32.594Z,9.73
2018-09-02T22:14:01.788Z,8.77
2018-09-02T22:16:39.544Z,9.13
2018-09-02T22:22:10.282Z,9.50
2018-09-02T22:25:03.955Z,8.33
2018-09-02T22:27:34.834Z,10.20
2018-09-02T22:43:49.276Z,7.23
2018-09-02T22:49:32.383Z,8.70
2018-09-02T22:55:05.318Z,8.07
